sensor_id;sensor_type;location;lat;lon;timestamp;noise_LAeq;noise_LA_min;noise_LA_max;noise_LA01;noise_LA95
37833;Laerm;23678;48.778;9.160;2024-02-21T00:02:08;37.29;32.35;40.23;;
37833;Laerm;23678;48.778;9.160;2024-02-21T00:04:52;37.10;30.89;41.22;;
37833;Laerm;23678;48.778;9.160;2024-02-21T00:07:36;37.09;32.00;39.92;;
37833;Laerm;23678;48.778;9.160;2024-02-21T00:10:19;36.98;30.89;39.58;;
37833;Laerm;23678;48.778;9.160;2024-02-21T00:13:04;37.18;31.68;42.22;;
37833;Laerm;23678;48.778;9.160;2024-02-21T00:15:48;36.98;30.89;40.13;;
37833;Laerm;23678;48.778;9.160;2024-02-21T00:18:32;36.98;32.35;40.13;;
37833;Laerm;23678;48.778;9.160;2024-02-21T00:21:16;36.99;30.89;39.92;;
37833;Laerm;23678;48.778;9.160;2024-02-21T00:24:02;36.98;29.92;39.46;;
37833;Laerm;23678;48.778;9.160;2024-02-21T00:26:46;37.44;31.68;44.39;;
37833;Laerm;23678;48.778;9.160;2024-02-21T00:29:30;38.18;32.93;48.64;;
37833;Laerm;23678;48.778;9.160;2024-02-21T00:32:13;37.18;32.35;42.65;;
37833;Laerm;23678;48.778;9.160;2024-02-21T00:34:57;37.04;31.68;40.80;;
37833;Laerm;23678;48.778;9.160;2024-02-21T00:37:41;36.96;28.67;39.81;;
37833;Laerm;23678;48.778;9.160;2024-02-21T00:40:25;36.94;32.00;39.70;;
37833;Laerm;23678;48.778;9.160;2024-02-21T00:43:09;36.98;32.35;39.81;;
37833;Laerm;23678;48.778;9.160;2024-02-21T00:45:53;37.36;30.89;41.22;;
37833;Laerm;23678;48.778;9.160;2024-02-21T00:48:37;37.06;31.68;39.89;;
37833;Laerm;23678;48.778;9.160;2024-02-21T00:51:21;36.94;29.92;39.70;;
37833;Laerm;23678;48.778;9.160;2024-02-21T00:54:05;36.96;26.91;40.03;;
37833;Laerm;23678;48.778;9.160;2024-02-21T00:56:50;36.96;31.68;39.81;;
37833;Laerm;23678;48.778;9.160;2024-02-21T00:59:33;36.93;31.68;39.58;;
37833;Laerm;23678;48.778;9.160;2024-02-21T01:02:17;36.96;31.68;39.70;;
37833;Laerm;23678;48.778;9.160;2024-02-21T01:05:02;36.90;30.89;40.03;;
37833;Laerm;23678;48.778;9.160;2024-02-21T01:07:45;36.96;30.89;39.81;;
37833;Laerm;23678;48.778;9.160;2024-02-21T01:10:29;37.06;32.35;40.53;;
37833;Laerm;23678;48.778;9.160;2024-02-21T01:13:13;38.20;31.68;46.45;;
37833;Laerm;23678;48.778;9.160;2024-02-21T01:15:57;36.97;31.68;40.80;;
37833;Laerm;23678;48.778;9.160;2024-02-21T01:18:41;37.17;32.35;41.82;;
37833;Laerm;23678;48.778;9.160;2024-02-21T01:21:25;38.24;30.89;47.22;;
37833;Laerm;23678;48.778;9.160;2024-02-21T01:24:09;36.93;32.00;40.03;;
37833;Laerm;23678;48.778;9.160;2024-02-21T01:26:53;36.95;31.68;39.70;;
37833;Laerm;23678;48.778;9.160;2024-02-21T01:29:37;36.98;29.92;40.13;;
37833;Laerm;23678;48.778;9.160;2024-02-21T01:32:21;36.95;31.68;39.92;;
37833;Laerm;23678;48.778;9.160;2024-02-21T01:35:08;36.96;31.68;40.03;;
37833;Laerm;23678;48.778;9.160;2024-02-21T01:37:52;36.99;30.89;41.14;;
37833;Laerm;23678;48.778;9.160;2024-02-21T01:40:36;37.21;29.57;41.14;;
37833;Laerm;23678;48.778;9.160;2024-02-21T01:43:20;37.16;28.67;40.23;;
37833;Laerm;23678;48.778;9.160;2024-02-21T01:46:04;36.96;31.68;39.70;;
37833;Laerm;23678;48.778;9.160;2024-02-21T01:48:48;36.98;29.92;39.70;;
37833;Laerm;23678;48.778;9.160;2024-02-21T01:51:32;37.00;31.68;40.62;;
37833;Laerm;23678;48.778;9.160;2024-02-21T01:54:17;37.08;31.68;40.23;;
37833;Laerm;23678;48.778;9.160;2024-02-21T01:57:01;37.99;32.35;42.47;;
37833;Laerm;23678;48.778;9.160;2024-02-21T01:59:45;37.00;30.89;43.44;;
37833;Laerm;23678;48.778;9.160;2024-02-21T02:02:29;36.91;31.68;39.81;;
37833;Laerm;23678;48.778;9.160;2024-02-21T02:05:13;37.90;31.68;45.51;;
37833;Laerm;23678;48.778;9.160;2024-02-21T02:07:57;36.99;31.33;43.81;;
37833;Laerm;23678;48.778;9.160;2024-02-21T02:10:41;37.12;29.92;41.53;;
37833;Laerm;23678;48.778;9.160;2024-02-21T02:13:25;37.03;30.89;42.03;;
37833;Laerm;23678;48.778;9.160;2024-02-21T02:16:09;38.59;29.92;49.41;;
37833;Laerm;23678;48.778;9.160;2024-02-21T02:18:53;36.95;29.92;39.81;;
37833;Laerm;23678;48.778;9.160;2024-02-21T02:21:39;36.99;30.89;39.81;;
37833;Laerm;23678;48.778;9.160;2024-02-21T02:24:24;37.54;31.68;42.16;;
37833;Laerm;23678;48.778;9.160;2024-02-21T02:27:09;37.27;30.89;42.59;;
37833;Laerm;23678;48.778;9.160;2024-02-21T02:29:53;36.91;29.92;40.03;;
37833;Laerm;23678;48.778;9.160;2024-02-21T02:32:37;37.01;30.89;40.33;;
37833;Laerm;23678;48.778;9.160;2024-02-21T02:35:21;36.91;31.68;40.62;;
37833;Laerm;23678;48.778;9.160;2024-02-21T02:38:06;36.91;28.67;39.81;;
37833;Laerm;23678;48.778;9.160;2024-02-21T02:40:50;36.91;30.89;39.81;;
37833;Laerm;23678;48.778;9.160;2024-02-21T02:43:34;36.90;26.91;39.46;;
37833;Laerm;23678;48.778;9.160;2024-02-21T02:46:20;36.91;30.89;40.03;;
37833;Laerm;23678;48.778;9.160;2024-02-21T02:49:04;37.09;30.89;45.17;;
37833;Laerm;23678;48.778;9.160;2024-02-21T02:51:48;37.06;31.68;43.81;;
37833;Laerm;23678;48.778;9.160;2024-02-21T02:54:32;37.04;31.68;42.53;;
37833;Laerm;23678;48.778;9.160;2024-02-21T02:57:16;37.13;31.68;42.71;;
37833;Laerm;23678;48.778;9.160;2024-02-21T03:00:00;37.30;31.68;43.44;;
37833;Laerm;23678;48.778;9.160;2024-02-21T03:02:45;37.05;29.92;50.60;;
37833;Laerm;23678;48.778;9.160;2024-02-21T03:05:29;37.21;32.35;54.73;;
37833;Laerm;23678;48.778;9.160;2024-02-21T03:08:13;37.08;32.35;46.97;;
37833;Laerm;23678;48.778;9.160;2024-02-21T03:10:57;37.03;30.89;43.81;;
37833;Laerm;23678;48.778;9.160;2024-02-21T03:13:41;37.07;29.92;40.71;;
37833;Laerm;23678;48.778;9.160;2024-02-21T03:16:26;37.07;30.89;40.13;;
37833;Laerm;23678;48.778;9.160;2024-02-21T03:19:09;37.22;32.35;42.65;;
37833;Laerm;23678;48.778;9.160;2024-02-21T03:21:54;37.53;32.35;43.81;;
37833;Laerm;23678;48.778;9.160;2024-02-21T03:24:38;38.01;31.68;43.44;;
37833;Laerm;23678;48.778;9.160;2024-02-21T03:27:22;37.88;32.93;42.47;;
37833;Laerm;23678;48.778;9.160;2024-02-21T03:30:06;37.45;33.44;40.43;;
37833;Laerm;23678;48.778;9.160;2024-02-21T03:32:50;38.20;34.31;44.62;;
37833;Laerm;23678;48.778;9.160;2024-02-21T03:35:34;37.38;32.35;40.23;;
37833;Laerm;23678;48.778;9.160;2024-02-21T03:38:18;37.59;31.68;41.38;;
37833;Laerm;23678;48.778;9.160;2024-02-21T03:41:02;39.32;33.44;51.10;;
37833;Laerm;23678;48.778;9.160;2024-02-21T03:43:46;37.71;32.35;42.16;;
37833;Laerm;23678;48.778;9.160;2024-02-21T03:46:30;37.82;32.93;41.14;;
37833;Laerm;23678;48.778;9.160;2024-02-21T03:49:15;37.64;31.68;41.68;;
37833;Laerm;23678;48.778;9.160;2024-02-21T03:51:59;38.20;32.93;47.10;;
37833;Laerm;23678;48.778;9.160;2024-02-21T03:54:43;37.36;32.93;40.43;;
37833;Laerm;23678;48.778;9.160;2024-02-21T03:57:28;37.41;29.92;40.33;;
37833;Laerm;23678;48.778;9.160;2024-02-21T04:00:12;37.55;33.44;40.71;;
37833;Laerm;23678;48.778;9.160;2024-02-21T04:02:55;38.61;32.93;48.71;;
37833;Laerm;23678;48.778;9.160;2024-02-21T04:05:39;37.62;32.93;41.30;;
37833;Laerm;23678;48.778;9.160;2024-02-21T04:08:23;37.83;33.44;41.06;;
37833;Laerm;23678;48.778;9.160;2024-02-21T04:11:07;38.09;33.09;43.04;;
37833;Laerm;23678;48.778;9.160;2024-02-21T04:13:51;37.69;29.92;40.89;;
37833;Laerm;23678;48.778;9.160;2024-02-21T04:16:35;37.45;32.35;40.33;;
37833;Laerm;23678;48.778;9.160;2024-02-21T04:19:19;37.50;32.35;40.03;;
37833;Laerm;23678;48.778;9.160;2024-02-21T04:22:03;37.78;32.93;44.54;;
37833;Laerm;23678;48.778;9.160;2024-02-21T04:24:47;37.56;32.93;41.22;;
37833;Laerm;23678;48.778;9.160;2024-02-21T04:27:32;37.90;33.09;41.06;;
37833;Laerm;23678;48.778;9.160;2024-02-21T04:30:16;37.62;32.93;41.75;;
37833;Laerm;23678;48.778;9.160;2024-02-21T04:33:00;37.59;32.93;42.59;;
37833;Laerm;23678;48.778;9.160;2024-02-21T04:35:43;40.12;34.69;49.89;;
37833;Laerm;23678;48.778;9.160;2024-02-21T04:38:27;39.17;32.93;44.51;;
37833;Laerm;23678;48.778;9.160;2024-02-21T04:41:12;37.82;31.68;41.88;;
37833;Laerm;23678;48.778;9.160;2024-02-21T04:43:56;39.00;32.35;50.07;;
37833;Laerm;23678;48.778;9.160;2024-02-21T04:46:41;37.89;33.44;42.88;;
37833;Laerm;23678;48.778;9.160;2024-02-21T04:49:25;37.82;33.44;41.68;;
37833;Laerm;23678;48.778;9.160;2024-02-21T04:52:09;38.68;32.93;43.19;;
37833;Laerm;23678;48.778;9.160;2024-02-21T04:54:53;37.70;32.93;41.30;;
37833;Laerm;23678;48.778;9.160;2024-02-21T04:57:37;39.01;32.93;51.70;;
37833;Laerm;23678;48.778;9.160;2024-02-21T05:00:21;38.79;32.35;45.99;;
37833;Laerm;23678;48.778;9.160;2024-02-21T05:03:05;37.92;33.90;43.49;;
37833;Laerm;23678;48.778;9.160;2024-02-21T05:05:49;39.10;33.90;50.86;;
37833;Laerm;23678;48.778;9.160;2024-02-21T05:08:34;39.21;34.31;44.27;;
37833;Laerm;23678;48.778;9.160;2024-02-21T05:11:18;38.01;31.68;42.82;;
37833;Laerm;23678;48.778;9.160;2024-02-21T05:14:02;39.68;30.89;50.45;;
37833;Laerm;23678;48.778;9.160;2024-02-21T05:16:47;40.94;32.93;54.38;;
37833;Laerm;23678;48.778;9.160;2024-02-21T05:19:31;38.86;33.44;44.94;;
37833;Laerm;23678;48.778;9.160;2024-02-21T05:22:15;38.52;33.44;52.54;;
37833;Laerm;23678;48.778;9.160;2024-02-21T05:24:59;40.11;33.90;49.75;;
37833;Laerm;23678;48.778;9.160;2024-02-21T05:27:43;40.56;33.90;52.35;;
37833;Laerm;23678;48.778;9.160;2024-02-21T05:30:27;38.24;33.90;41.61;;
37833;Laerm;23678;48.778;9.160;2024-02-21T05:33:10;42.04;32.93;59.06;;
37833;Laerm;23678;48.778;9.160;2024-02-21T05:35:54;40.61;34.31;46.38;;
37833;Laerm;23678;48.778;9.160;2024-02-21T05:38:38;41.37;35.04;52.81;;
37833;Laerm;23678;48.778;9.160;2024-02-21T05:41:22;39.31;33.90;51.86;;
37833;Laerm;23678;48.778;9.160;2024-02-21T05:44:06;39.47;32.93;49.57;;
37833;Laerm;23678;48.778;9.160;2024-02-21T05:46:50;38.88;33.44;44.97;;
37833;Laerm;23678;48.778;9.160;2024-02-21T05:49:34;41.09;35.04;52.07;;
37833;Laerm;23678;48.778;9.160;2024-02-21T05:52:18;40.53;35.36;50.10;;
37833;Laerm;23678;48.778;9.160;2024-02-21T05:55:02;40.01;32.35;51.78;;
37833;Laerm;23678;48.778;9.160;2024-02-21T05:57:46;42.23;35.66;54.47;;
37833;Laerm;23678;48.778;9.160;2024-02-21T06:00:31;42.17;35.36;53.91;;
37833;Laerm;23678;48.778;9.160;2024-02-21T06:03:15;40.65;35.66;49.96;;
37833;Laerm;23678;48.778;9.160;2024-02-21T06:05:59;40.64;35.36;50.35;;
37833;Laerm;23678;48.778;9.160;2024-02-21T06:08:43;43.19;34.69;58.46;;
37833;Laerm;23678;48.778;9.160;2024-02-21T06:11:27;42.38;33.44;60.25;;
37833;Laerm;23678;48.778;9.160;2024-02-21T06:14:11;40.39;35.04;48.28;;
37833;Laerm;23678;48.778;9.160;2024-02-21T06:16:55;40.81;35.36;53.88;;
37833;Laerm;23678;48.778;9.160;2024-02-21T06:19:42;40.85;35.36;48.87;;
37833;Laerm;23678;48.778;9.160;2024-02-21T06:22:26;40.80;35.66;52.18;;
37833;Laerm;23678;48.778;9.160;2024-02-21T06:25:10;43.31;35.36;55.04;;
37833;Laerm;23678;48.778;9.160;2024-02-21T06:27:54;42.40;35.66;53.80;;
37833;Laerm;23678;48.778;9.160;2024-02-21T06:30:39;42.42;35.94;51.91;;
37833;Laerm;23678;48.778;9.160;2024-02-21T06:33:23;43.25;35.04;60.40;;
37833;Laerm;23678;48.778;9.160;2024-02-21T06:36:08;44.04;37.70;50.83;;
37833;Laerm;23678;48.778;9.160;2024-02-21T06:38:52;43.83;37.70;54.09;;
37833;Laerm;23678;48.778;9.160;2024-02-21T06:41:36;44.00;38.05;54.66;;
37833;Laerm;23678;48.778;9.160;2024-02-21T06:44:21;43.95;36.91;54.36;;
37833;Laerm;23678;48.778;9.160;2024-02-21T06:47:05;44.25;38.21;54.34;;
37833;Laerm;23678;48.778;9.160;2024-02-21T06:49:49;44.72;37.88;61.76;;
37833;Laerm;23678;48.778;9.160;2024-02-21T06:52:34;44.65;37.12;59.19;;
37833;Laerm;23678;48.778;9.160;2024-02-21T06:55:18;43.59;35.94;53.37;;
37833;Laerm;23678;48.778;9.160;2024-02-21T06:58:02;43.85;36.69;55.14;;
37833;Laerm;23678;48.778;9.160;2024-02-21T07:00:46;43.00;36.45;52.11;;
37833;Laerm;23678;48.778;9.160;2024-02-21T07:03:30;43.85;36.20;56.31;;
37833;Laerm;23678;48.778;9.160;2024-02-21T07:06:14;41.96;35.94;53.03;;
37833;Laerm;23678;48.778;9.160;2024-02-21T07:08:58;42.06;36.20;51.17;;
37833;Laerm;23678;48.778;9.160;2024-02-21T07:11:41;42.30;36.20;52.10;;
37833;Laerm;23678;48.778;9.160;2024-02-21T07:14:27;42.91;37.12;54.40;;
37833;Laerm;23678;48.778;9.160;2024-02-21T07:17:11;42.74;36.20;53.67;;
37833;Laerm;23678;48.778;9.160;2024-02-21T07:19:55;42.66;36.20;54.68;;
37833;Laerm;23678;48.778;9.160;2024-02-21T07:22:40;43.05;35.66;52.28;;
37833;Laerm;23678;48.778;9.160;2024-02-21T07:25:24;42.95;36.20;56.13;;
37833;Laerm;23678;48.778;9.160;2024-02-21T07:28:08;41.75;36.45;53.85;;
37833;Laerm;23678;48.778;9.160;2024-02-21T07:30:52;43.90;36.45;51.92;;
37833;Laerm;23678;48.778;9.160;2024-02-21T07:33:36;45.07;39.08;56.73;;
37833;Laerm;23678;48.778;9.160;2024-02-21T07:36:30;51.85;37.88;70.72;;
37833;Laerm;23678;48.778;9.160;2024-02-21T07:39:17;42.73;35.94;57.45;;
37833;Laerm;23678;48.778;9.160;2024-02-21T07:42:01;42.14;34.69;54.04;;
37833;Laerm;23678;48.778;9.160;2024-02-21T07:44:45;40.09;34.69;50.11;;
37833;Laerm;23678;48.778;9.160;2024-02-21T07:47:28;42.70;35.04;54.20;;
37833;Laerm;23678;48.778;9.160;2024-02-21T07:50:12;40.84;35.04;51.17;;
37833;Laerm;23678;48.778;9.160;2024-02-21T07:52:57;43.84;36.20;53.56;;
37833;Laerm;23678;48.778;9.160;2024-02-21T07:55:41;42.72;35.04;51.42;;
37833;Laerm;23678;48.778;9.160;2024-02-21T07:58:25;41.69;35.66;52.98;;
37833;Laerm;23678;48.778;9.160;2024-02-21T08:01:09;42.79;35.94;55.41;;
37833;Laerm;23678;48.778;9.160;2024-02-21T08:03:53;43.00;35.66;57.90;;
37833;Laerm;23678;48.778;9.160;2024-02-21T08:06:37;41.09;35.04;55.05;;
37833;Laerm;23678;48.778;9.160;2024-02-21T08:09:22;41.05;34.31;52.91;;
37833;Laerm;23678;48.778;9.160;2024-02-21T08:12:06;41.30;34.69;51.12;;
37833;Laerm;23678;48.778;9.160;2024-02-21T08:14:51;43.52;33.90;55.98;;
37833;Laerm;23678;48.778;9.160;2024-02-21T08:17:35;39.99;33.90;48.74;;
37833;Laerm;23678;48.778;9.160;2024-02-21T08:20:19;39.92;32.93;48.32;;
37833;Laerm;23678;48.778;9.160;2024-02-21T08:23:03;41.48;34.69;50.85;;
37833;Laerm;23678;48.778;9.160;2024-02-21T08:25:47;40.79;35.04;48.80;;
37833;Laerm;23678;48.778;9.160;2024-02-21T08:28:31;41.12;35.36;56.35;;
37833;Laerm;23678;48.778;9.160;2024-02-21T08:31:18;41.30;34.69;49.50;;
37833;Laerm;23678;48.778;9.160;2024-02-21T08:34:02;42.89;35.04;57.47;;
37833;Laerm;23678;48.778;9.160;2024-02-21T08:36:47;42.35;35.36;55.30;;
37833;Laerm;23678;48.778;9.160;2024-02-21T08:39:31;40.31;33.90;52.05;;
37833;Laerm;23678;48.778;9.160;2024-02-21T08:42:15;40.26;32.35;54.98;;
37833;Laerm;23678;48.778;9.160;2024-02-21T08:44:59;40.73;32.35;54.38;;
37833;Laerm;23678;48.778;9.160;2024-02-21T08:47:43;40.65;33.90;49.94;;
37833;Laerm;23678;48.778;9.160;2024-02-21T08:50:27;40.92;32.93;67.53;;
37833;Laerm;23678;48.778;9.160;2024-02-21T08:53:11;40.85;34.69;51.21;;
37833;Laerm;23678;48.778;9.160;2024-02-21T08:55:56;42.38;33.90;57.03;;
37833;Laerm;23678;48.778;9.160;2024-02-21T08:58:40;41.66;32.93;55.81;;
37833;Laerm;23678;48.778;9.160;2024-02-21T09:01:25;39.96;34.31;46.40;;
37833;Laerm;23678;48.778;9.160;2024-02-21T09:04:09;41.42;36.20;51.52;;
37833;Laerm;23678;48.778;9.160;2024-02-21T09:06:54;40.78;33.44;53.79;;
37833;Laerm;23678;48.778;9.160;2024-02-21T09:09:38;39.82;33.44;49.16;;
37833;Laerm;23678;48.778;9.160;2024-02-21T09:12:23;42.40;34.31;51.38;;
37833;Laerm;23678;48.778;9.160;2024-02-21T09:15:07;39.61;32.93;48.13;;
37833;Laerm;23678;48.778;9.160;2024-02-21T09:17:51;39.33;33.44;53.40;;
37833;Laerm;23678;48.778;9.160;2024-02-21T09:20:35;42.46;34.31;53.30;;
37833;Laerm;23678;48.778;9.160;2024-02-21T09:23:19;41.74;34.69;51.17;;
37833;Laerm;23678;48.778;9.160;2024-02-21T09:26:03;40.10;33.44;47.30;;
37833;Laerm;23678;48.778;9.160;2024-02-21T09:28:47;40.99;32.35;52.58;;
37833;Laerm;23678;48.778;9.160;2024-02-21T09:31:31;40.45;33.44;48.39;;
37833;Laerm;23678;48.778;9.160;2024-02-21T09:34:15;40.13;34.31;46.69;;
37833;Laerm;23678;48.778;9.160;2024-02-21T09:36:59;39.00;33.90;43.77;;
37833;Laerm;23678;48.778;9.160;2024-02-21T09:39:43;40.63;33.90;50.58;;
37833;Laerm;23678;48.778;9.160;2024-02-21T09:42:47;47.27;34.31;65.00;;
37833;Laerm;23678;48.778;9.160;2024-02-21T09:45:31;40.31;33.44;55.78;;
37833;Laerm;23678;48.778;9.160;2024-02-21T09:51:03;43.47;35.66;57.54;;
37833;Laerm;23678;48.778;9.160;2024-02-21T09:53:47;45.39;36.91;64.08;;
37833;Laerm;23678;48.778;9.160;2024-02-21T09:56:31;42.52;35.66;60.69;;
37833;Laerm;23678;48.778;9.160;2024-02-21T09:59:16;42.58;36.45;58.18;;
37833;Laerm;23678;48.778;9.160;2024-02-21T10:02:00;41.30;34.69;54.50;;
37833;Laerm;23678;48.778;9.160;2024-02-21T10:04:45;43.05;36.45;56.30;;
37833;Laerm;23678;48.778;9.160;2024-02-21T10:07:29;42.18;36.69;55.02;;
37833;Laerm;23678;48.778;9.160;2024-02-21T10:10:13;42.60;35.36;58.59;;
37833;Laerm;23678;48.778;9.160;2024-02-21T10:12:58;41.85;34.31;53.38;;
37833;Laerm;23678;48.778;9.160;2024-02-21T10:15:42;39.43;33.90;44.39;;
37833;Laerm;23678;48.778;9.160;2024-02-21T10:18:26;41.22;34.31;51.00;;
37833;Laerm;23678;48.778;9.160;2024-02-21T10:21:10;40.32;34.69;57.27;;
37833;Laerm;23678;48.778;9.160;2024-02-21T10:23:54;39.07;32.35;48.45;;
37833;Laerm;23678;48.778;9.160;2024-02-21T10:26:38;42.29;35.66;50.00;;
37833;Laerm;23678;48.778;9.160;2024-02-21T10:29:22;41.82;35.94;49.36;;
37833;Laerm;23678;48.778;9.160;2024-02-21T10:32:15;40.90;35.04;50.36;;
37833;Laerm;23678;48.778;9.160;2024-02-21T10:35:03;39.94;32.35;48.26;;
37833;Laerm;23678;48.778;9.160;2024-02-21T10:37:50;42.66;35.04;49.97;;
37833;Laerm;23678;48.778;9.160;2024-02-21T10:40:39;40.22;33.44;49.56;;
37833;Laerm;23678;48.778;9.160;2024-02-21T10:43:23;40.45;33.44;50.66;;
37833;Laerm;23678;48.778;9.160;2024-02-21T10:46:07;40.86;33.44;50.32;;
37833;Laerm;23678;48.778;9.160;2024-02-21T10:49:02;39.61;33.44;48.45;;
37833;Laerm;23678;48.778;9.160;2024-02-21T10:51:47;40.85;34.31;57.07;;
37833;Laerm;23678;48.778;9.160;2024-02-21T10:57:35;40.54;33.44;49.90;;
37833;Laerm;23678;48.778;9.160;2024-02-21T11:00:19;39.95;33.90;48.37;;
37833;Laerm;23678;48.778;9.160;2024-02-21T11:03:03;42.21;36.69;57.40;;
37833;Laerm;23678;48.778;9.160;2024-02-21T11:05:47;42.01;35.86;56.29;;
37833;Laerm;23678;48.778;9.160;2024-02-21T11:08:31;40.59;34.69;49.73;;
37833;Laerm;23678;48.778;9.160;2024-02-21T11:11:15;39.78;32.93;48.73;;
37833;Laerm;23678;48.778;9.160;2024-02-21T11:14:08;40.42;32.93;55.94;;
37833;Laerm;23678;48.778;9.160;2024-02-21T11:16:52;40.54;32.93;52.38;;
37833;Laerm;23678;48.778;9.160;2024-02-21T11:19:36;40.82;35.04;50.54;;
37833;Laerm;23678;48.778;9.160;2024-02-21T11:22:20;41.17;32.93;51.74;;
37833;Laerm;23678;48.778;9.160;2024-02-21T11:25:06;40.16;33.44;49.41;;
37833;Laerm;23678;48.778;9.160;2024-02-21T11:31:07;47.93;33.44;64.08;;
37833;Laerm;23678;48.778;9.160;2024-02-21T11:33:52;41.53;32.35;48.78;;
37833;Laerm;23678;48.778;9.160;2024-02-21T11:36:36;40.51;33.90;52.26;;
37833;Laerm;23678;48.778;9.160;2024-02-21T11:39:24;39.57;33.44;47.72;;
37833;Laerm;23678;48.778;9.160;2024-02-21T11:42:08;39.79;33.90;50.39;;
37833;Laerm;23678;48.778;9.160;2024-02-21T11:44:53;41.57;32.93;51.18;;
37833;Laerm;23678;48.778;9.160;2024-02-21T11:47:37;39.94;32.35;48.39;;
37833;Laerm;23678;48.778;9.160;2024-02-21T11:50:26;41.10;32.93;53.00;;
37833;Laerm;23678;48.778;9.160;2024-02-21T11:53:10;41.47;33.90;50.12;;
37833;Laerm;23678;48.778;9.160;2024-02-21T11:55:54;40.55;34.31;49.63;;
37833;Laerm;23678;48.778;9.160;2024-02-21T11:58:39;40.06;33.90;48.28;;
37833;Laerm;23678;48.778;9.160;2024-02-21T12:01:23;40.02;32.93;51.97;;
37833;Laerm;23678;48.778;9.160;2024-02-21T12:04:08;41.15;33.90;49.45;;
37833;Laerm;23678;48.778;9.160;2024-02-21T12:06:52;41.43;35.36;55.92;;
37833;Laerm;23678;48.778;9.160;2024-02-21T12:09:36;41.63;33.90;54.21;;
37833;Laerm;23678;48.778;9.160;2024-02-21T12:12:20;41.17;35.04;50.18;;
37833;Laerm;23678;48.778;9.160;2024-02-21T12:15:05;43.73;36.45;55.03;;
37833;Laerm;23678;48.778;9.160;2024-02-21T12:17:49;40.96;35.04;48.90;;
37833;Laerm;23678;48.778;9.160;2024-02-21T12:20:35;42.19;34.69;51.47;;
37833;Laerm;23678;48.778;9.160;2024-02-21T12:23:20;40.53;31.68;50.14;;
37833;Laerm;23678;48.778;9.160;2024-02-21T12:26:04;41.60;33.44;61.22;;
37833;Laerm;23678;48.778;9.160;2024-02-21T12:28:48;41.80;34.69;54.77;;
37833;Laerm;23678;48.778;9.160;2024-02-21T12:31:32;41.26;34.31;53.18;;
37833;Laerm;23678;48.778;9.160;2024-02-21T12:34:16;39.86;33.90;46.15;;
37833;Laerm;23678;48.778;9.160;2024-02-21T12:37:01;41.27;34.31;49.18;;
37833;Laerm;23678;48.778;9.160;2024-02-21T12:39:45;41.62;35.04;50.01;;
37833;Laerm;23678;48.778;9.160;2024-02-21T12:42:29;43.08;34.69;57.37;;
37833;Laerm;23678;48.778;9.160;2024-02-21T12:45:13;40.30;33.90;46.95;;
37833;Laerm;23678;48.778;9.160;2024-02-21T12:47:59;41.15;34.69;46.89;;
37833;Laerm;23678;48.778;9.160;2024-02-21T12:50:52;40.28;33.90;50.92;;
37833;Laerm;23678;48.778;9.160;2024-02-21T12:53:36;41.62;35.04;57.72;;
37833;Laerm;23678;48.778;9.160;2024-02-21T12:56:20;42.32;32.35;63.37;;
37833;Laerm;23678;48.778;9.160;2024-02-21T12:59:04;40.57;32.35;49.15;;
37833;Laerm;23678;48.778;9.160;2024-02-21T13:01:48;39.31;34.31;46.07;;
37833;Laerm;23678;48.778;9.160;2024-02-21T13:04:31;39.96;33.44;48.58;;
37833;Laerm;23678;48.778;9.160;2024-02-21T13:07:16;39.55;32.93;51.12;;
37833;Laerm;23678;48.778;9.160;2024-02-21T13:09:59;42.40;33.90;54.72;;
37833;Laerm;23678;48.778;9.160;2024-02-21T13:12:43;44.63;35.04;58.75;;
37833;Laerm;23678;48.778;9.160;2024-02-21T13:15:27;40.68;33.90;49.57;;
37833;Laerm;23678;48.778;9.160;2024-02-21T13:18:11;39.31;33.44;49.16;;
37833;Laerm;23678;48.778;9.160;2024-02-21T13:20:55;40.40;33.44;50.36;;
37833;Laerm;23678;48.778;9.160;2024-02-21T13:23:40;41.63;31.68;53.93;;
37833;Laerm;23678;48.778;9.160;2024-02-21T13:26:24;42.61;33.90;56.07;;
37833;Laerm;23678;48.778;9.160;2024-02-21T13:29:08;38.95;33.44;51.03;;
37833;Laerm;23678;48.778;9.160;2024-02-21T13:31:52;39.64;32.00;49.55;;
37833;Laerm;23678;48.778;9.160;2024-02-21T13:34:36;40.75;34.31;50.42;;
37833;Laerm;23678;48.778;9.160;2024-02-21T13:37:20;39.63;33.44;46.77;;
37833;Laerm;23678;48.778;9.160;2024-02-21T13:40:05;43.46;33.44;58.46;;
37833;Laerm;23678;48.778;9.160;2024-02-21T13:42:49;43.02;34.69;51.56;;
37833;Laerm;23678;48.778;9.160;2024-02-21T13:45:35;40.20;32.35;51.44;;
37833;Laerm;23678;48.778;9.160;2024-02-21T13:48:19;41.72;33.44;50.67;;
37833;Laerm;23678;48.778;9.160;2024-02-21T13:51:03;40.70;32.93;53.64;;
37833;Laerm;23678;48.778;9.160;2024-02-21T13:53:48;40.69;31.68;52.12;;
37833;Laerm;23678;48.778;9.160;2024-02-21T13:56:32;39.28;33.90;48.70;;
37833;Laerm;23678;48.778;9.160;2024-02-21T13:59:16;41.23;33.09;50.28;;
37833;Laerm;23678;48.778;9.160;2024-02-21T14:02:00;40.93;33.90;53.28;;
37833;Laerm;23678;48.778;9.160;2024-02-21T14:04:44;41.37;33.90;56.27;;
37833;Laerm;23678;48.778;9.160;2024-02-21T14:07:28;39.91;34.31;47.53;;
37833;Laerm;23678;48.778;9.160;2024-02-21T14:10:12;42.02;34.69;50.77;;
37833;Laerm;23678;48.778;9.160;2024-02-21T14:12:56;40.53;34.31;50.91;;
37833;Laerm;23678;48.778;9.160;2024-02-21T14:15:41;41.84;34.31;50.38;;
37833;Laerm;23678;48.778;9.160;2024-02-21T14:18:26;40.56;33.90;48.42;;
37833;Laerm;23678;48.778;9.160;2024-02-21T14:21:11;42.14;34.69;54.67;;
37833;Laerm;23678;48.778;9.160;2024-02-21T14:23:55;41.54;35.36;50.50;;
37833;Laerm;23678;48.778;9.160;2024-02-21T14:26:40;40.36;33.44;49.16;;
37833;Laerm;23678;48.778;9.160;2024-02-21T14:29:25;42.69;34.69;60.60;;
37833;Laerm;23678;48.778;9.160;2024-02-21T14:32:09;41.64;35.04;49.74;;
37833;Laerm;23678;48.778;9.160;2024-02-21T14:34:54;40.78;35.01;52.17;;
37833;Laerm;23678;48.778;9.160;2024-02-21T14:37:38;41.71;34.69;52.22;;
37833;Laerm;23678;48.778;9.160;2024-02-21T14:40:22;41.08;35.04;51.60;;
37833;Laerm;23678;48.778;9.160;2024-02-21T14:43:06;41.09;34.69;50.71;;
37833;Laerm;23678;48.778;9.160;2024-02-21T14:45:50;42.51;35.66;53.06;;
37833;Laerm;23678;48.778;9.160;2024-02-21T14:48:34;40.79;35.04;52.74;;
37833;Laerm;23678;48.778;9.160;2024-02-21T14:51:17;41.00;33.90;53.91;;
37833;Laerm;23678;48.778;9.160;2024-02-21T14:54:01;43.43;33.90;58.00;;
37833;Laerm;23678;48.778;9.160;2024-02-21T14:56:46;40.77;35.36;50.55;;
37833;Laerm;23678;48.778;9.160;2024-02-21T14:59:30;40.97;34.31;52.98;;
37833;Laerm;23678;48.778;9.160;2024-02-21T15:02:14;41.39;34.69;51.09;;
37833;Laerm;23678;48.778;9.160;2024-02-21T15:04:58;41.41;35.66;53.97;;
37833;Laerm;23678;48.778;9.160;2024-02-21T15:07:42;39.85;33.44;48.96;;
37833;Laerm;23678;48.778;9.160;2024-02-21T15:10:26;48.46;33.90;62.00;;
37833;Laerm;23678;48.778;9.160;2024-02-21T15:13:10;40.84;34.69;46.33;;
37833;Laerm;23678;48.778;9.160;2024-02-21T15:15:54;40.72;34.31;49.34;;
37833;Laerm;23678;48.778;9.160;2024-02-21T15:18:38;40.48;34.69;46.33;;
37833;Laerm;23678;48.778;9.160;2024-02-21T15:21:22;41.52;34.69;55.89;;
37833;Laerm;23678;48.778;9.160;2024-02-21T15:24:06;42.06;35.66;50.21;;
37833;Laerm;23678;48.778;9.160;2024-02-21T15:26:51;41.34;33.44;52.62;;
37833;Laerm;23678;48.778;9.160;2024-02-21T15:29:35;39.95;33.90;46.35;;